createdAt,value
2018-03-20T00:00:03.106Z,18.83
2018-03-20T00:02:31.261Z,19.90
2018-03-20T00:04:59.415Z,21.00
2018-03-20T00:07:27.580Z,17.42
2018-03-20T00:09:55.719Z,20.58
2018-03-20T00:12:23.855Z,18.98
2018-03-20T00:14:52.071Z,19.17
2018-03-20T00:17:20.202Z,18.52
2018-03-20T00:19:48.340Z,22.77
2018-03-20T00:22:16.511Z,17.62
2018-03-20T00:24:44.651Z,20.75
2018-03-20T00:27:12.794Z,17.33
2018-03-20T00:29:41.724Z,17.95
2018-03-20T00:32:09.884Z,19.83
2018-03-20T00:34:38.035Z,17.27
2018-03-20T00:37:06.963Z,15.88
2018-03-20T00:39:35.128Z,18.52
2018-03-20T00:42:03.285Z,21.23
2018-03-20T00:44:31.421Z,16.33
2018-03-20T00:46:59.586Z,18.17
2018-03-20T00:49:27.711Z,18.90
2018-03-20T00:51:56.213Z,17.00
2018-03-20T00:54:24.393Z,20.15
2018-03-20T00:56:52.540Z,20.00
2018-03-20T00:59:20.759Z,16.65
2018-03-20T01:01:48.898Z,16.55
2018-03-20T01:04:17.050Z,19.77
2018-03-20T01:06:45.182Z,12.88
2018-03-20T01:09:13.334Z,17.62
2018-03-20T01:11:41.462Z,16.85
2018-03-20T01:14:09.608Z,18.27
2018-03-20T01:16:38.532Z,22.40
2018-03-20T01:19:06.704Z,18.87
2018-03-20T01:21:34.843Z,16.05
2018-03-20T01:24:02.990Z,19.40
2018-03-20T01:26:31.140Z,18.00
2018-03-20T01:28:59.291Z,19.05
2018-03-20T01:31:27.426Z,20.80
2018-03-20T01:33:55.561Z,19.02
2018-03-20T01:36:23.803Z,22.13
2018-03-20T01:38:51.938Z,19.00
2018-03-20T01:41:20.945Z,19.37
2018-03-20T01:43:49.084Z,19.48
2018-03-20T01:46:17.243Z,18.23
2018-03-20T01:48:45.378Z,19.45
2018-03-20T01:51:13.584Z,18.60
2018-03-20T01:53:41.707Z,17.05
2018-03-20T01:56:09.866Z,18.08
2018-03-20T01:58:38.003Z,14.02
2018-03-20T02:01:06.151Z,15.10
2018-03-20T02:03:34.287Z,15.65
2018-03-20T02:06:02.431Z,14.05
2018-03-20T02:08:30.619Z,16.50
2018-03-20T02:10:58.792Z,13.15
2018-03-20T02:13:26.954Z,15.52
2018-03-20T02:15:56.264Z,14.98
2018-03-20T02:18:25.178Z,15.18
2018-03-20T02:20:53.308Z,15.18
2018-03-20T02:23:22.222Z,15.55
2018-03-20T02:25:50.354Z,15.50
2018-03-20T02:28:18.502Z,14.35
2018-03-20T02:30:46.658Z,16.35
2018-03-20T02:33:14.807Z,12.75
2018-03-20T02:35:43.364Z,18.08
2018-03-20T02:38:11.519Z,17.55
2018-03-20T02:40:39.666Z,14.40
2018-03-20T02:43:07.822Z,17.70
2018-03-20T02:45:35.956Z,20.52
2018-03-20T02:48:04.114Z,14.23
2018-03-20T02:50:33.012Z,16.42
2018-03-20T02:53:01.959Z,15.75
2018-03-20T02:55:30.088Z,16.02
2018-03-20T02:57:58.227Z,17.35
2018-03-20T03:00:26.393Z,14.60
2018-03-20T03:02:54.579Z,13.75
2018-03-20T03:05:22.735Z,15.00
2018-03-20T03:07:52.366Z,14.68
2018-03-20T03:10:20.522Z,15.10
2018-03-20T03:12:49.422Z,14.87
2018-03-20T03:15:17.587Z,17.02
2018-03-20T03:17:46.498Z,18.83
2018-03-20T03:20:14.666Z,14.82
2018-03-20T03:22:42.810Z,13.32
2018-03-20T03:25:10.951Z,14.23
2018-03-20T03:27:39.085Z,13.77
2018-03-20T03:30:08.036Z,15.07
2018-03-20T03:32:36.174Z,13.48
2018-03-20T03:35:04.327Z,13.32
2018-03-20T03:37:32.465Z,15.15
2018-03-20T03:40:01.390Z,15.80
2018-03-20T03:42:29.527Z,14.63
2018-03-20T03:44:58.452Z,17.83
2018-03-20T03:47:26.594Z,15.10
2018-03-20T03:49:54.728Z,14.80
2018-03-20T03:52:25.339Z,16.95
2018-03-20T03:54:53.494Z,16.55
2018-03-20T03:57:21.632Z,15.18
2018-03-20T03:59:50.599Z,16.55
2018-03-20T04:02:18.746Z,18.40
2018-03-20T04:04:46.876Z,16.17
2018-03-20T04:07:15.018Z,15.60
2018-03-20T04:09:43.927Z,16.00
2018-03-20T04:15:03.810Z,11.55
2018-03-20T04:17:32.743Z,13.13
2018-03-20T04:20:00.858Z,13.90
2018-03-20T04:22:29.019Z,12.88
2018-03-20T04:24:57.920Z,19.12
2018-03-20T04:27:27.666Z,15.82
2018-03-20T04:29:55.813Z,15.77
2018-03-20T04:32:23.971Z,14.48
2018-03-20T04:34:52.139Z,15.40
2018-03-20T04:37:20.302Z,14.18
2018-03-20T04:39:48.482Z,15.50
2018-03-20T04:42:17.390Z,15.95
2018-03-20T04:44:46.403Z,14.20
2018-03-20T04:47:14.558Z,21.70
2018-03-20T04:49:42.707Z,20.75
2018-03-20T04:52:10.910Z,22.65
2018-03-20T04:54:39.131Z,21.48
2018-03-20T04:57:07.281Z,14.85
2018-03-20T04:59:35.423Z,14.05
2018-03-20T05:02:03.566Z,16.35
2018-03-20T05:04:32.482Z,17.30
2018-03-20T05:07:01.519Z,16.80
2018-03-20T05:09:29.670Z,12.90
2018-03-20T05:11:57.804Z,16.30
2018-03-20T05:14:26.720Z,19.30
2018-03-20T05:16:54.850Z,13.77
2018-03-20T05:19:28.602Z,16.90
2018-03-20T05:35:23.134Z,17.52
2018-03-20T05:37:52.402Z,17.45
2018-03-20T05:40:20.594Z,15.48
2018-03-20T05:42:48.735Z,15.57
2018-03-20T05:45:16.887Z,15.77
2018-03-20T05:47:50.726Z,15.57
2018-03-20T06:03:45.124Z,16.87
2018-03-20T06:06:13.330Z,18.60
2018-03-20T06:08:41.446Z,18.12
2018-03-20T06:11:10.364Z,16.58
2018-03-20T06:13:38.626Z,15.00
2018-03-20T06:16:06.835Z,18.80
2018-03-20T06:18:34.999Z,16.17
2018-03-20T06:21:03.317Z,12.85
2018-03-20T06:23:31.494Z,17.52
2018-03-20T06:26:00.398Z,16.52
2018-03-20T06:28:28.538Z,16.30
2018-03-20T06:30:57.435Z,16.98
2018-03-20T06:33:26.357Z,15.52
2018-03-20T06:35:54.497Z,18.17
2018-03-20T06:38:23.406Z,13.23
2018-03-20T06:40:51.561Z,15.90
2018-03-20T06:43:19.711Z,16.35
2018-03-20T06:45:47.848Z,14.87
2018-03-20T06:48:15.990Z,14.45
2018-03-20T06:50:44.132Z,15.80
2018-03-20T06:53:12.264Z,14.18
2018-03-20T06:55:40.406Z,15.20
2018-03-20T06:58:08.562Z,16.60
2018-03-20T07:00:36.715Z,13.95
2018-03-20T07:03:04.862Z,13.40
2018-03-20T07:05:33.051Z,12.60
2018-03-20T07:08:01.191Z,18.70
2018-03-20T07:10:29.337Z,15.57
2018-03-20T07:12:57.469Z,15.52
2018-03-20T07:15:25.624Z,13.60
2018-03-20T07:17:53.754Z,13.73
2018-03-20T07:20:22.004Z,14.87
2018-03-20T07:22:50.971Z,12.50
2018-03-20T07:25:19.414Z,15.32
2018-03-20T07:27:47.635Z,14.25
2018-03-20T07:30:16.725Z,13.40
2018-03-20T07:32:44.922Z,19.62
2018-03-20T07:35:13.176Z,12.88
2018-03-20T07:37:41.402Z,13.62
2018-03-20T07:40:09.800Z,13.15
2018-03-20T07:42:38.788Z,15.73
2018-03-20T07:45:06.928Z,13.57
2018-03-20T07:47:35.164Z,14.20
2018-03-20T07:50:04.222Z,13.13
2018-03-20T07:52:32.426Z,14.50
2018-03-20T07:55:00.666Z,19.83
2018-03-20T07:57:29.872Z,11.77
2018-03-20T07:59:58.191Z,11.97
2018-03-20T08:02:26.352Z,15.13
2018-03-20T08:04:54.696Z,13.37
2018-03-20T08:07:22.912Z,12.07
2018-03-20T08:09:52.013Z,11.63
2018-03-20T08:12:20.284Z,12.03
2018-03-20T08:14:48.464Z,13.13
2018-03-20T08:17:16.695Z,17.03
2018-03-20T08:19:45.889Z,13.13
2018-03-20T08:22:14.802Z,11.40
2018-03-20T08:24:42.978Z,13.40
2018-03-20T08:27:11.174Z,12.10
2018-03-20T08:29:39.542Z,11.90
2018-03-20T08:32:07.953Z,10.70
2018-03-20T08:34:36.192Z,11.60
2018-03-20T08:37:04.334Z,12.93
2018-03-20T08:39:32.500Z,12.90
2018-03-20T08:42:00.630Z,10.20
2018-03-20T08:44:28.794Z,10.97
2018-03-20T08:46:56.953Z,10.33
2018-03-20T08:49:25.111Z,11.07
2018-03-20T08:51:53.248Z,9.00
2018-03-20T08:54:22.538Z,10.27
2018-03-20T08:56:50.744Z,10.20
2018-03-20T08:59:18.878Z,9.37
2018-03-20T09:01:47.014Z,8.90
2018-03-20T09:04:15.155Z,8.30
2018-03-20T09:06:43.398Z,8.70
2018-03-20T09:09:11.550Z,10.43
2018-03-20T09:11:39.756Z,9.80
2018-03-20T09:14:07.903Z,8.30
2018-03-20T09:16:36.042Z,9.00
2018-03-20T09:19:04.170Z,7.17
2018-03-20T09:21:33.070Z,8.43
2018-03-20T09:24:01.204Z,8.47
2018-03-20T09:26:29.349Z,17.40
2018-03-20T09:28:57.482Z,9.03
2018-03-20T09:31:25.643Z,6.10
2018-03-20T09:33:54.540Z,7.47
2018-03-20T09:36:23.146Z,7.60
2018-03-20T09:38:51.278Z,6.50
2018-03-20T09:41:20.177Z,8.23
2018-03-20T09:43:48.320Z,7.50
2018-03-20T09:46:16.447Z,8.07
2018-03-20T09:48:44.617Z,7.57
2018-03-20T09:51:12.790Z,7.13
2018-03-20T09:53:40.934Z,8.03
2018-03-20T09:56:09.055Z,7.83
2018-03-20T09:58:37.196Z,8.23
2018-03-20T10:01:05.323Z,7.00
2018-03-20T10:03:34.233Z,7.90
2018-03-20T10:06:02.357Z,7.40
2018-03-20T10:08:30.507Z,9.53
2018-03-20T10:10:58.629Z,18.30
2018-03-20T10:13:27.529Z,16.47
2018-03-20T10:15:55.674Z,7.87
2018-03-20T10:18:23.810Z,8.07
2018-03-20T10:20:51.959Z,7.60
2018-03-20T10:23:20.066Z,8.90
2018-03-20T10:25:48.211Z,8.83
2018-03-20T10:28:16.339Z,9.20
2018-03-20T10:30:44.486Z,7.73
2018-03-20T10:33:12.625Z,8.47
2018-03-20T10:35:40.798Z,7.60
2018-03-20T10:38:08.926Z,8.80
2018-03-20T10:40:37.837Z,8.33
2018-03-20T10:43:05.961Z,7.70
2018-03-20T10:45:34.100Z,7.73
2018-03-20T10:48:02.216Z,8.00
2018-03-20T10:50:30.856Z,8.00
2018-03-20T10:52:58.973Z,7.83
2018-03-20T10:55:27.870Z,8.57
2018-03-20T10:57:55.998Z,8.77
2018-03-20T11:00:29.827Z,15.00
2018-03-20T11:02:59.088Z,13.23
2018-03-20T11:05:27.219Z,8.20
2018-03-20T11:07:55.362Z,8.30
2018-03-20T11:10:24.253Z,7.90
2018-03-20T11:12:52.388Z,8.07
2018-03-20T11:15:20.526Z,7.80
2018-03-20T11:17:48.661Z,8.53
2018-03-20T11:20:16.838Z,10.60
2018-03-20T11:22:45.747Z,7.43
2018-03-20T11:25:13.869Z,7.90
2018-03-20T11:27:42.104Z,7.30
2018-03-20T11:30:10.239Z,9.07
2018-03-20T11:32:38.408Z,11.23
2018-03-20T11:35:06.545Z,8.70
2018-03-20T11:37:34.666Z,12.47
2018-03-20T11:40:03.556Z,9.00
2018-03-20T11:42:32.469Z,7.70
2018-03-20T11:45:00.602Z,8.03
2018-03-20T11:47:29.514Z,8.13
2018-03-20T11:49:57.708Z,9.50
2018-03-20T11:52:25.824Z,7.10
2018-03-20T11:54:53.995Z,8.20
2018-03-20T11:57:22.090Z,8.95
2018-03-20T11:59:51.370Z,8.65
2018-03-20T12:02:19.478Z,8.93
2018-03-20T12:04:47.644Z,8.35
2018-03-20T12:07:15.781Z,8.20
2018-03-20T12:09:48.434Z,9.13
2018-03-20T12:12:16.562Z,9.55
2018-03-20T12:14:44.696Z,9.40
2018-03-20T12:17:12.849Z,6.60
2018-03-20T12:19:40.995Z,7.30
2018-03-20T12:22:09.125Z,8.63
2018-03-20T12:24:37.270Z,10.48
2018-03-20T12:27:05.915Z,9.27
2018-03-20T12:29:34.046Z,10.45
2018-03-20T12:32:02.942Z,9.40
2018-03-20T12:34:32.197Z,11.85
2018-03-20T12:37:00.307Z,10.10
2018-03-20T12:39:28.427Z,14.15
2018-03-20T12:41:56.619Z,10.38
2018-03-20T12:44:24.769Z,13.10
2018-03-20T12:46:53.701Z,11.40
2018-03-20T12:49:22.706Z,16.65
2018-03-20T12:51:50.891Z,13.93
2018-03-20T12:54:19.024Z,14.45
2018-03-20T12:56:47.410Z,12.45
2018-03-20T12:59:15.548Z,13.75
2018-03-20T13:01:43.693Z,13.05
2018-03-20T13:04:11.819Z,12.95
2018-03-20T13:06:40.730Z,12.20
2018-03-20T13:09:09.624Z,12.37
2018-03-20T13:11:37.782Z,14.00
2018-03-20T13:14:05.926Z,17.30
2018-03-20T13:16:34.064Z,13.93
2018-03-20T13:19:02.193Z,14.85
2018-03-20T13:21:31.087Z,13.10
2018-03-20T13:23:59.223Z,11.23
2018-03-20T13:26:27.353Z,10.90
2018-03-20T13:28:55.500Z,13.45
2018-03-20T13:31:24.431Z,14.02
2018-03-20T13:33:53.551Z,12.88
2018-03-20T13:36:21.750Z,13.05
2018-03-20T13:38:50.740Z,13.75
2018-03-20T13:41:19.631Z,13.18
2018-03-20T13:43:47.834Z,17.05
2018-03-20T13:46:15.921Z,15.05
2018-03-20T13:48:44.077Z,15.75
2018-03-20T13:51:12.385Z,17.37
2018-03-20T13:53:40.605Z,13.40
2018-03-20T13:56:08.813Z,15.02
2018-03-20T13:58:37.028Z,13.90
2018-03-20T14:01:05.215Z,16.80
2018-03-20T14:03:33.467Z,25.02
2018-03-20T14:06:01.583Z,18.40
2018-03-20T14:08:29.722Z,19.08
2018-03-20T14:10:57.862Z,17.75
2018-03-20T14:13:26.807Z,18.33
2018-03-20T14:15:54.999Z,20.80
2018-03-20T14:18:23.151Z,20.02
2018-03-20T14:20:51.299Z,19.95
2018-03-20T14:23:19.512Z,19.70
2018-03-20T14:25:48.454Z,18.92
2018-03-20T14:28:17.770Z,21.58
2018-03-20T14:30:45.931Z,22.85
2018-03-20T14:33:14.178Z,21.20
2018-03-20T14:35:42.344Z,22.65
2018-03-20T14:38:11.266Z,19.85
2018-03-20T14:40:39.415Z,19.90
2018-03-20T14:43:07.599Z,17.40
2018-03-20T14:45:36.511Z,18.35
2018-03-20T14:48:04.638Z,16.83
2018-03-20T14:50:32.788Z,19.73
2018-03-20T14:53:00.923Z,20.05
2018-03-20T14:55:29.078Z,21.75
2018-03-20T14:57:57.222Z,22.37
2018-03-20T15:00:25.368Z,21.05
2018-03-20T15:02:54.101Z,25.12
2018-03-20T15:05:22.438Z,20.60
2018-03-20T15:07:51.430Z,22.40
2018-03-20T15:10:21.166Z,18.95
2018-03-20T15:12:49.399Z,18.00
2018-03-20T15:15:17.666Z,24.15
2018-03-20T15:17:45.854Z,24.05
2018-03-20T15:20:14.062Z,26.87
2018-03-20T15:22:42.203Z,27.17
2018-03-20T15:25:11.194Z,23.27
2018-03-20T15:27:39.933Z,21.85
2018-03-20T15:30:08.058Z,24.50
2018-03-20T15:32:36.200Z,26.42
2018-03-20T15:35:04.332Z,25.92
2018-03-20T15:37:32.477Z,32.17
2018-03-20T15:40:00.739Z,26.83
2018-03-20T15:42:28.882Z,34.15
2018-03-20T15:44:57.059Z,33.78
2018-03-20T15:47:25.243Z,29.48
2018-03-20T15:49:53.354Z,32.53
2018-03-20T15:52:21.506Z,31.40
2018-03-20T15:54:49.635Z,24.67
2018-03-20T15:57:17.813Z,27.05
2018-03-20T15:59:45.956Z,29.20
2018-03-20T16:02:14.095Z,32.42
2018-03-20T16:04:43.103Z,33.83
2018-03-20T16:07:11.249Z,32.08
2018-03-20T16:09:39.389Z,32.65
2018-03-20T16:12:07.647Z,32.40
2018-03-20T16:14:35.886Z,28.75
2018-03-20T16:17:04.017Z,30.42
2018-03-20T16:19:32.164Z,27.85
2018-03-20T16:22:00.278Z,26.42
2018-03-20T16:24:28.952Z,30.12
2018-03-20T16:26:57.083Z,32.45
2018-03-20T16:29:25.342Z,31.98
2018-03-20T16:31:53.398Z,37.78
2018-03-20T16:34:21.548Z,32.65
2018-03-20T16:36:49.672Z,26.77
2018-03-20T16:39:17.835Z,30.45
2018-03-20T16:41:46.060Z,26.77
2018-03-20T16:44:14.202Z,31.25
2018-03-20T16:46:42.326Z,31.52
2018-03-20T16:49:11.247Z,30.02
2018-03-20T16:51:39.382Z,29.67
2018-03-20T16:54:08.274Z,29.80
2018-03-20T16:56:37.183Z,26.95
2018-03-20T16:59:05.307Z,24.50
2018-03-20T17:01:33.563Z,29.95
2018-03-20T17:04:01.725Z,22.95
2018-03-20T17:06:29.885Z,27.85
2018-03-20T17:08:58.020Z,24.42
2018-03-20T17:11:27.012Z,27.37
2018-03-20T17:13:55.908Z,26.62
2018-03-20T17:16:24.829Z,23.95
2018-03-20T17:18:52.954Z,25.42
2018-03-20T17:21:21.857Z,32.50
2018-03-20T17:23:58.634Z,29.20
2018-03-20T17:26:26.782Z,27.30
2018-03-20T17:28:55.676Z,26.35
2018-03-20T17:31:28.136Z,26.92
2018-03-20T17:33:56.262Z,27.05
2018-03-20T17:36:24.894Z,29.20
2018-03-20T17:38:53.852Z,29.58
2018-03-20T17:41:23.039Z,29.90
2018-03-20T17:43:52.375Z,24.08
2018-03-20T17:46:22.357Z,26.92
2018-03-20T17:48:50.778Z,28.62
2018-03-20T17:51:19.709Z,23.50
2018-03-20T17:53:50.462Z,26.37
2018-03-20T17:56:20.661Z,21.45
2018-03-20T17:58:48.971Z,25.55
2018-03-20T18:01:17.967Z,23.65
2018-03-20T18:03:47.055Z,24.98
2018-03-20T18:06:15.689Z,26.52
2018-03-20T18:08:43.863Z,20.75
2018-03-20T18:11:12.243Z,27.98
2018-03-20T18:13:40.407Z,27.90
2018-03-20T18:16:08.668Z,27.30
2018-03-20T18:18:36.820Z,31.52
2018-03-20T18:21:04.955Z,31.90
2018-03-20T18:23:33.136Z,26.52
2018-03-20T18:26:01.347Z,29.75
2018-03-20T18:28:29.525Z,29.58
2018-03-20T18:30:57.731Z,23.48
2018-03-20T18:33:25.898Z,30.48
2018-03-20T18:35:54.055Z,27.52
2018-03-20T18:38:22.265Z,27.52
2018-03-20T18:40:51.171Z,26.65
2018-03-20T18:43:20.180Z,30.33
2018-03-20T18:45:49.046Z,27.00
2018-03-20T18:48:17.207Z,28.00
2018-03-20T18:50:45.404Z,28.20
2018-03-20T18:53:13.548Z,30.88
2018-03-20T18:55:42.454Z,30.30
2018-03-20T18:58:10.598Z,33.35
2018-03-20T19:00:38.932Z,29.30
2018-03-20T19:03:07.182Z,32.83
2018-03-20T19:05:35.397Z,34.22
2018-03-20T19:08:03.531Z,38.00
2018-03-20T19:10:31.672Z,33.88
2018-03-20T19:13:00.604Z,33.92
2018-03-20T19:15:28.743Z,33.65
2018-03-20T19:17:57.650Z,31.10
2018-03-20T19:20:26.110Z,34.65
2018-03-20T19:22:55.010Z,32.65
2018-03-20T19:25:23.157Z,30.90
2018-03-20T19:27:52.056Z,33.30
2018-03-20T19:30:21.669Z,34.22
2018-03-20T19:32:50.557Z,28.60
2018-03-20T19:35:18.708Z,30.95
2018-03-20T19:37:46.868Z,33.33
2018-03-20T19:40:15.014Z,35.38
2018-03-20T19:42:48.008Z,35.38
2018-03-20T19:45:18.482Z,32.60
2018-03-20T19:47:50.505Z,24.00
2018-03-20T19:50:25.054Z,28.90
2018-03-20T19:52:55.727Z,26.10
2018-03-20T19:55:25.430Z,26.83
2018-03-20T19:57:54.703Z,29.25
2018-03-20T20:00:25.603Z,26.90
2018-03-20T20:02:56.595Z,25.62
2018-03-20T20:05:27.960Z,29.65
2018-03-20T20:07:57.778Z,26.62
2018-03-20T20:10:26.748Z,22.95
2018-03-20T20:12:58.826Z,26.45
2018-03-20T20:15:29.742Z,23.67
2018-03-20T20:18:00.369Z,23.23
2018-03-20T20:20:31.859Z,26.87
2018-03-20T20:23:03.764Z,22.90
2018-03-20T20:25:32.992Z,27.58
2018-03-20T20:28:04.658Z,24.65
2018-03-20T20:30:33.624Z,24.75
2018-03-20T20:33:04.189Z,24.30
2018-03-20T20:35:33.860Z,22.60
2018-03-20T20:38:04.346Z,22.58
2018-03-20T20:40:36.863Z,21.33
2018-03-20T20:43:09.175Z,20.48
2018-03-20T20:45:39.174Z,20.55
2018-03-20T20:48:15.723Z,16.73
2018-03-20T20:50:48.225Z,18.17
2018-03-20T20:53:18.694Z,17.90
2018-03-20T20:55:49.334Z,17.60
2018-03-20T20:58:18.996Z,19.98
2018-03-20T21:00:50.934Z,15.48
2018-03-20T21:03:22.632Z,16.70
2018-03-20T21:05:53.988Z,18.35
2018-03-20T21:08:23.080Z,19.10
2018-03-20T21:10:53.908Z,20.33
2018-03-20T21:13:23.909Z,20.12
2018-03-20T21:15:52.204Z,20.45
2018-03-20T21:18:21.090Z,17.55
2018-03-20T21:20:50.080Z,18.35
2018-03-20T21:23:18.970Z,15.95
2018-03-20T21:25:47.921Z,19.62
2018-03-20T21:28:16.033Z,21.23
2018-03-20T21:30:44.968Z,18.77
2018-03-20T21:33:13.102Z,21.62
2018-03-20T21:35:41.234Z,18.65
2018-03-20T21:38:09.386Z,16.90
2018-03-20T21:40:37.574Z,19.05
2018-03-20T21:43:05.732Z,18.87
2018-03-20T21:45:33.875Z,17.98
2018-03-20T21:48:02.027Z,19.35
2018-03-20T21:50:31.702Z,20.92
2018-03-20T21:52:59.870Z,17.10
2018-03-20T21:55:30.171Z,19.45
2018-03-20T21:57:58.799Z,20.45
2018-03-20T22:00:27.778Z,18.83
2018-03-20T22:02:56.718Z,19.05
2018-03-20T22:05:24.874Z,18.00
2018-03-20T22:07:53.783Z,20.40
2018-03-20T22:10:21.907Z,19.70
2018-03-20T22:12:50.853Z,19.12
2018-03-20T22:15:18.992Z,19.45
2018-03-20T22:17:47.141Z,19.45
2018-03-20T22:20:16.043Z,22.13
2018-03-20T22:22:44.205Z,19.70
2018-03-20T22:25:12.376Z,19.17
2018-03-20T22:27:41.365Z,16.40
2018-03-20T22:30:09.772Z,21.85
2018-03-20T22:32:37.914Z,16.42
2018-03-20T22:35:06.871Z,18.77
2018-03-20T22:37:35.067Z,18.83
2018-03-20T22:40:04.070Z,19.15
2018-03-20T22:42:32.518Z,20.95
2018-03-20T22:45:04.145Z,17.27
2018-03-20T22:47:32.278Z,17.20
2018-03-20T22:50:00.421Z,15.38
2018-03-20T22:52:28.586Z,18.48
2018-03-20T22:54:56.735Z,17.05
2018-03-20T22:57:24.870Z,16.65
2018-03-20T22:59:53.032Z,17.40
2018-03-20T23:02:21.922Z,18.87
2018-03-20T23:04:50.072Z,18.55
2018-03-20T23:07:18.971Z,19.98
2018-03-20T23:09:47.894Z,17.83
2018-03-20T23:12:16.030Z,17.00
2018-03-20T23:14:45.093Z,17.83
2018-03-20T23:17:13.210Z,16.40
2018-03-20T23:19:41.405Z,16.42
2018-03-20T23:22:09.566Z,14.90
2018-03-20T23:24:37.811Z,13.75
2018-03-20T23:27:06.713Z,15.98
2018-03-20T23:29:34.858Z,16.77
2018-03-20T23:32:02.990Z,14.55
2018-03-20T23:34:31.133Z,15.73
2018-03-20T23:36:59.342Z,20.35
2018-03-20T23:39:27.494Z,20.40
2018-03-20T23:41:55.715Z,14.15
2018-03-20T23:44:23.870Z,18.30
2018-03-20T23:46:52.006Z,15.13
2018-03-20T23:49:20.271Z,16.05
2018-03-20T23:51:48.445Z,13.05
2018-03-20T23:54:17.413Z,12.48
2018-03-20T23:56:46.332Z,14.68
2018-03-20T23:59:15.266Z,15.10
